Time;durP1;ratioP1;P1;durP2;ratioP2;P2;SDS_P1;SDS_P2;PMS_P1;PMS_P2;Temp;Humidity;BMP_temperature;BMP_pressure;BME280_temperature;BME280_humidity;BME280_pressure;Samples;Min_cycle;Max_cycle;Signal;HPM_P1;HPM_P2
2019/07/16 00:01:46;;;;;;;7.55;6.11;;;;;;;21.44;52.40;100793.41;;;;-51
2019/07/16 00:04:47;;;;;;;6.17;5.57;;;;;;;21.43;52.43;100794.88;;;;-51
2019/07/16 00:07:46;;;;;;;6.22;5.62;;;;;;;21.43;52.40;100794.37;;;;-59
2019/07/16 00:10:46;;;;;;;6.55;5.89;;;;;;;21.43;52.42;100789.83;;;;-47
2019/07/16 00:13:46;;;;;;;6.77;6.05;;;;;;;21.43;52.38;100794.53;;;;-51
2019/07/16 00:16:46;;;;;;;6.59;5.87;;;;;;;21.43;52.39;100793.09;;;;-59
2019/07/16 00:19:46;;;;;;;6.39;5.79;;;;;;;21.43;52.40;100798.67;;;;-48
2019/07/16 00:22:46;;;;;;;6.87;5.93;;;;;;;21.43;52.40;100798.40;;;;-51
2019/07/16 00:25:46;;;;;;;6.50;5.89;;;;;;;21.42;52.43;100793.75;;;;-51
2019/07/16 00:28:46;;;;;;;6.37;5.76;;;;;;;21.42;52.38;100795.20;;;;-59
2019/07/16 00:31:46;;;;;;;6.70;5.96;;;;;;;21.42;52.38;100791.80;;;;-59
2019/07/16 00:34:46;;;;;;;7.03;6.27;;;;;;;21.41;52.36;100794.48;;;;-48
2019/07/16 00:37:46;;;;;;;7.50;5.74;;;;;;;21.41;52.40;100794.78;;;;-51
2019/07/16 00:40:47;;;;;;;6.40;5.80;;;;;;;21.41;52.41;100796.63;;;;-47
2019/07/16 00:43:47;;;;;;;7.21;6.04;;;;;;;21.41;52.44;100793.77;;;;-51
2019/07/16 00:46:46;;;;;;;6.45;5.83;;;;;;;21.40;52.36;100793.84;;;;-51
2019/07/16 00:49:46;;;;;;;7.39;6.06;;;;;;;21.41;52.33;100795.86;;;;-51
2019/07/16 00:52:46;;;;;;;7.11;6.41;;;;;;;21.40;52.38;100792.33;;;;-51
2019/07/16 00:55:46;;;;;;;7.16;6.38;;;;;;;21.41;52.36;100798.88;;;;-59
2019/07/16 00:58:46;;;;;;;6.61;5.94;;;;;;;21.40;52.40;100791.05;;;;-51
2019/07/16 01:01:46;;;;;;;6.42;5.82;;;;;;;21.40;52.38;100788.36;;;;-51
2019/07/16 01:04:47;;;;;;;7.25;6.55;;;;;;;21.39;52.36;100794.41;;;;-47
2019/07/16 01:07:46;;;;;;;7.05;6.35;;;;;;;21.39;52.38;100796.15;;;;-59
2019/07/16 01:10:46;;;;;;;7.08;6.38;;;;;;;21.39;52.34;100793.46;;;;-51
2019/07/16 01:13:46;;;;;;;7.07;6.36;;;;;;;21.39;52.37;100787.04;;;;-51
2019/07/16 01:16:46;;;;;;;6.84;6.17;;;;;;;21.39;52.38;100789.33;;;;-51
2019/07/16 01:19:46;;;;;;;6.87;6.17;;;;;;;21.38;52.44;100791.73;;;;-51
2019/07/16 01:22:46;;;;;;;6.71;6.03;;;;;;;21.37;52.41;100794.05;;;;-51
2019/07/16 01:25:46;;;;;;;7.19;6.22;;;;;;;21.38;52.40;100792.64;;;;-59
2019/07/16 01:28:46;;;;;;;6.93;6.23;;;;;;;21.37;52.38;100791.12;;;;-47
2019/07/16 01:31:46;;;;;;;6.70;6.07;;;;;;;21.37;52.35;100786.25;;;;-51
2019/07/16 01:34:46;;;;;;;6.97;6.29;;;;;;;21.37;52.36;100788.17;;;;-59
2019/07/16 01:37:46;;;;;;;7.03;6.11;;;;;;;21.36;52.40;100788.23;;;;-51
2019/07/16 01:40:47;;;;;;;7.17;6.46;;;;;;;21.37;52.37;100791.36;;;;-51
2019/07/16 01:43:47;;;;;;;7.00;6.16;;;;;;;21.36;52.36;100790.24;;;;-60
2019/07/16 01:46:47;;;;;;;6.77;6.08;;;;;;;21.37;52.33;100786.95;;;;-52
2019/07/16 01:49:46;;;;;;;6.95;6.27;;;;;;;21.36;52.37;100782.20;;;;-59
2019/07/16 01:52:47;;;;;;;6.73;6.10;;;;;;;21.36;52.35;100784.87;;;;-59
2019/07/16 01:55:46;;;;;;;6.81;6.11;;;;;;;21.36;52.40;100788.77;;;;-48
2019/07/16 01:58:46;;;;;;;7.48;6.43;;;;;;;21.35;52.33;100785.16;;;;-59
2019/07/16 02:01:46;;;;;;;8.25;6.55;;;;;;;21.36;52.35;100789.59;;;;-59
2019/07/16 02:04:46;;;;;;;7.27;6.55;;;;;;;21.35;52.35;100787.64;;;;-58
2019/07/16 02:07:46;;;;;;;6.99;6.29;;;;;;;21.35;52.40;100789.77;;;;-59
2019/07/16 02:10:46;;;;;;;7.27;6.57;;;;;;;21.34;52.35;100788.31;;;;-59
2019/07/16 02:13:46;;;;;;;7.36;6.65;;;;;;;21.34;52.33;100785.52;;;;-51
2019/07/16 02:16:46;;;;;;;7.01;6.22;;;;;;;21.35;52.37;100791.67;;;;-52
2019/07/16 02:19:46;;;;;;;6.92;6.23;;;;;;;21.34;52.35;100789.11;;;;-51
2019/07/16 02:22:46;;;;;;;6.62;6.02;;;;;;;21.33;52.33;100786.99;;;;-51
2019/07/16 02:25:46;;;;;;;7.16;6.46;;;;;;;21.33;52.35;100789.23;;;;-50
2019/07/16 02:28:46;;;;;;;7.10;6.40;;;;;;;21.34;52.36;100784.51;;;;-47
2019/07/16 02:31:46;;;;;;;7.12;6.42;;;;;;;21.33;52.34;100784.14;;;;-52
2019/07/16 02:34:46;;;;;;;7.32;6.61;;;;;;;21.33;52.29;100780.94;;;;-59
2019/07/16 02:37:46;;;;;;;6.83;6.17;;;;;;;21.32;52.34;100781.47;;;;-47
2019/07/16 02:40:46;;;;;;;7.37;6.67;;;;;;;21.32;52.31;100781.06;;;;-51
2019/07/16 02:43:46;;;;;;;7.39;6.69;;;;;;;21.31;52.35;100783.14;;;;-59
2019/07/16 02:46:46;;;;;;;7.49;6.73;;;;;;;21.32;52.30;100783.48;;;;-48
2019/07/16 02:49:47;;;;;;;7.31;6.61;;;;;;;21.31;52.29;100781.97;;;;-51
2019/07/16 02:52:47;;;;;;;7.07;6.37;;;;;;;21.31;52.29;100779.17;;;;-59
2019/07/16 02:55:46;;;;;;;7.11;6.41;;;;;;;21.31;52.38;100775.88;;;;-51
2019/07/16 02:58:46;;;;;;;7.33;6.63;;;;;;;21.31;52.26;100772.52;;;;-51
2019/07/16 03:01:46;;;;;;;7.03;6.33;;;;;;;21.30;52.30;100765.30;;;;-51
2019/07/16 03:04:46;;;;;;;7.33;6.63;;;;;;;21.29;52.30;100760.89;;;;-51
2019/07/16 03:07:46;;;;;;;7.21;6.48;;;;;;;21.30;52.29;100758.47;;;;-48
2019/07/16 03:10:46;;;;;;;7.36;6.66;;;;;;;21.30;52.29;100763.67;;;;-51
2019/07/16 03:13:46;;;;;;;7.58;6.88;;;;;;;21.29;52.30;100762.73;;;;-59
2019/07/16 03:16:46;;;;;;;7.28;6.58;;;;;;;21.29;52.31;100761.12;;;;-51
2019/07/16 03:19:46;;;;;;;7.40;6.70;;;;;;;21.29;52.31;100763.98;;;;-51
2019/07/16 03:22:46;;;;;;;7.23;6.53;;;;;;;21.29;52.34;100762.13;;;;-51
2019/07/16 03:25:47;;;;;;;6.99;6.33;;;;;;;21.29;52.30;100759.88;;;;-59
2019/07/16 03:28:46;;;;;;;7.14;6.44;;;;;;;21.29;52.29;100760.45;;;;-47
2019/07/16 03:31:46;;;;;;;7.35;6.65;;;;;;;21.28;52.32;100762.31;;;;-48
2019/07/16 03:34:46;;;;;;;6.87;6.23;;;;;;;21.28;52.29;100763.59;;;;-47
2019/07/16 03:37:46;;;;;;;7.19;6.49;;;;;;;21.28;52.34;100764.16;;;;-59
2019/07/16 03:40:46;;;;;;;7.73;6.65;;;;;;;21.28;52.31;100764.27;;;;-59
2019/07/16 03:43:46;;;;;;;7.21;6.51;;;;;;;21.28;52.33;100769.81;;;;-51
2019/07/16 03:46:46;;;;;;;7.50;6.78;;;;;;;21.28;52.28;100769.70;;;;-51
2019/07/16 03:49:46;;;;;;;7.20;6.50;;;;;;;21.28;52.26;100770.48;;;;-47
2019/07/16 03:52:46;;;;;;;7.66;6.86;;;;;;;21.27;52.28;100772.90;;;;-51
2019/07/16 03:55:46;;;;;;;7.36;6.64;;;;;;;21.27;52.27;100774.98;;;;-59
2019/07/16 03:58:47;;;;;;;7.24;6.54;;;;;;;21.27;52.29;100773.63;;;;-51
2019/07/16 04:01:46;;;;;;;7.29;6.65;;;;;;;21.27;52.30;100774.98;;;;-48
2019/07/16 04:04:46;;;;;;;7.92;7.14;;;;;;;21.27;52.25;100774.13;;;;-59
2019/07/16 04:07:46;;;;;;;7.60;6.84;;;;;;;21.27;52.23;100776.83;;;;-47
2019/07/16 04:10:46;;;;;;;7.80;7.05;;;;;;;21.27;52.28;100780.86;;;;-59
2019/07/16 04:13:46;;;;;;;7.61;6.73;;;;;;;21.26;52.27;100780.92;;;;-51
2019/07/16 04:16:46;;;;;;;7.58;6.88;;;;;;;21.27;52.23;100775.82;;;;-51
2019/07/16 04:19:47;;;;;;;7.35;6.65;;;;;;;21.26;52.25;100772.52;;;;-59
2019/07/16 04:22:46;;;;;;;7.21;6.54;;;;;;;21.25;52.24;100776.51;;;;-51
2019/07/16 04:25:46;;;;;;;7.41;6.71;;;;;;;21.25;52.27;100779.20;;;;-47
2019/07/16 04:28:46;;;;;;;6.94;6.33;;;;;;;21.25;52.25;100774.48;;;;-47
2019/07/16 04:31:46;;;;;;;7.78;7.08;;;;;;;21.25;52.24;100780.88;;;;-51
2019/07/16 04:34:46;;;;;;;7.47;6.77;;;;;;;21.25;52.27;100780.10;;;;-51
2019/07/16 04:37:46;;;;;;;7.15;6.45;;;;;;;21.24;52.23;100779.99;;;;-48
2019/07/16 04:40:46;;;;;;;7.53;6.76;;;;;;;21.24;52.25;100776.13;;;;-51
2019/07/16 04:43:46;;;;;;;7.25;6.55;;;;;;;21.24;52.25;100784.03;;;;-51
2019/07/16 04:46:46;;;;;;;7.31;6.61;;;;;;;21.24;52.25;100784.93;;;;-51
2019/07/16 04:49:46;;;;;;;7.45;6.75;;;;;;;21.24;52.28;100786.03;;;;-59
2019/07/16 04:52:46;;;;;;;7.31;6.61;;;;;;;21.24;52.24;100783.69;;;;-47
2019/07/16 04:55:46;;;;;;;7.21;6.51;;;;;;;21.23;52.25;100781.63;;;;-59
2019/07/16 04:58:46;;;;;;;7.29;6.59;;;;;;;21.23;52.26;100782.64;;;;-59
2019/07/16 05:01:46;;;;;;;7.49;6.77;;;;;;;21.24;52.26;100789.06;;;;-51
2019/07/16 05:04:46;;;;;;;7.27;6.57;;;;;;;21.24;52.25;100791.81;;;;-51
2019/07/16 05:07:46;;;;;;;7.43;6.71;;;;;;;21.24;52.26;100787.61;;;;-51
2019/07/16 05:10:46;;;;;;;7.50;6.80;;;;;;;21.23;52.28;100784.15;;;;-59
2019/07/16 05:13:46;;;;;;;7.13;6.48;;;;;;;21.22;52.29;100781.76;;;;-47
2019/07/16 05:16:46;;;;;;;7.43;6.73;;;;;;;21.23;52.32;100784.66;;;;-59
2019/07/16 05:19:46;;;;;;;7.66;6.93;;;;;;;21.23;52.28;100785.66;;;;-51
2019/07/16 05:22:47;;;;;;;7.29;6.59;;;;;;;21.23;52.29;100793.55;;;;-47
2019/07/16 05:25:46;;;;;;;7.32;6.62;;;;;;;21.22;52.29;100789.31;;;;-51
2019/07/16 05:28:46;;;;;;;7.49;6.79;;;;;;;21.22;52.32;100787.86;;;;-59
2019/07/16 05:31:46;;;;;;;7.59;6.89;;;;;;;21.22;52.30;100789.72;;;;-59
2019/07/16 05:34:46;;;;;;;7.03;6.37;;;;;;;21.23;52.31;100787.75;;;;-47
2019/07/16 05:37:46;;;;;;;7.59;6.79;;;;;;;21.22;52.34;100789.04;;;;-51
2019/07/16 05:40:46;;;;;;;7.51;6.75;;;;;;;21.22;52.34;100784.44;;;;-51
2019/07/16 05:43:46;;;;;;;7.27;6.60;;;;;;;21.22;52.35;100781.92;;;;-51
2019/07/16 05:46:46;;;;;;;7.14;6.44;;;;;;;21.23;52.33;100786.67;;;;-51
2019/07/16 05:49:46;;;;;;;7.09;6.39;;;;;;;21.23;52.33;100784.21;;;;-51
2019/07/16 05:52:46;;;;;;;6.98;6.32;;;;;;;21.23;52.35;100788.41;;;;-47
2019/07/16 05:55:46;;;;;;;18.43;12.81;;;;;;;21.10;51.53;100791.19;;;;-52
2019/07/16 05:58:46;;;;;;;20.11;16.94;;;;;;;20.94;51.36;100795.09;;;;-51
2019/07/16 06:01:46;;;;;;;20.23;16.63;;;;;;;20.88;51.33;100799.86;;;;-48
2019/07/16 06:04:47;;;;;;;22.49;18.13;;;;;;;20.81;51.33;100804.75;;;;-47
2019/07/16 06:07:47;;;;;;;22.19;18.21;;;;;;;20.69;51.31;100800.69;;;;-46
2019/07/16 06:10:47;;;;;;;22.96;18.26;;;;;;;20.61;51.24;100798.04;;;;-47
2019/07/16 06:13:46;;;;;;;24.79;19.05;;;;;;;20.56;51.48;100796.30;;;;-50
2019/07/16 06:16:46;;;;;;;21.35;17.83;;;;;;;20.52;51.49;100796.39;;;;-51
2019/07/16 06:19:46;;;;;;;25.07;18.97;;;;;;;20.48;51.58;100795.14;;;;-50
2019/07/16 06:22:46;;;;;;;21.19;17.45;;;;;;;20.39;51.72;100794.16;;;;-50
2019/07/16 06:25:46;;;;;;;22.57;17.81;;;;;;;20.40;51.88;100795.72;;;;-50
2019/07/16 06:28:46;;;;;;;21.54;18.04;;;;;;;20.35;51.75;100792.19;;;;-50
2019/07/16 06:31:46;;;;;;;22.51;17.97;;;;;;;20.30;51.78;100793.13;;;;-50
2019/07/16 06:34:46;;;;;;;21.31;16.64;;;;;;;20.28;51.94;100789.08;;;;-50
2019/07/16 06:37:46;;;;;;;21.35;17.22;;;;;;;20.27;52.07;100782.66;;;;-50
2019/07/16 06:40:46;;;;;;;23.41;17.25;;;;;;;20.29;51.72;100784.03;;;;-50
2019/07/16 06:43:46;;;;;;;20.58;16.98;;;;;;;19.92;51.87;100785.52;;;;-51
2019/07/16 06:46:46;;;;;;;22.03;16.98;;;;;;;19.83;51.83;100781.72;;;;-49
2019/07/16 06:49:46;;;;;;;20.15;15.67;;;;;;;19.74;51.92;100776.33;;;;-48
2019/07/16 06:52:46;;;;;;;20.68;15.73;;;;;;;19.62;52.02;100782.31;;;;-48
2019/07/16 06:55:46;;;;;;;19.94;15.89;;;;;;;19.64;52.61;100782.13;;;;-48
2019/07/16 06:58:47;;;;;;;22.50;16.23;;;;;;;19.57;52.39;100783.74;;;;-48
2019/07/16 07:01:46;;;;;;;20.10;16.69;;;;;;;19.57;52.36;100779.72;;;;-49
2019/07/16 07:04:46;;;;;;;20.07;16.50;;;;;;;19.53;52.88;100784.38;;;;-49
2019/07/16 07:07:46;;;;;;;19.08;15.95;;;;;;;19.57;53.17;100782.06;;;;-49
2019/07/16 07:10:47;;;;;;;21.66;15.87;;;;;;;19.56;53.24;100779.91;;;;-49
2019/07/16 07:13:48;;;;;;;19.17;15.79;;;;;;;19.57;53.51;100782.41;;;;-47
2019/07/16 07:16:46;;;;;;;19.65;15.40;;;;;;;19.60;53.26;100786.87;;;;-50
2019/07/16 07:19:46;;;;;;;17.47;14.60;;;;;;;19.63;52.92;100784.50;;;;-51
2019/07/16 07:22:46;;;;;;;19.67;14.51;;;;;;;19.69;52.99;100782.72;;;;-49
2019/07/16 07:25:46;;;;;;;19.42;13.99;;;;;;;19.79;53.26;100779.86;;;;-49
2019/07/16 07:28:46;;;;;;;18.65;13.72;;;;;;;19.84;53.15;100783.28;;;;-50
2019/07/16 07:31:46;;;;;;;16.39;13.37;;;;;;;19.87;52.83;100785.67;;;;-49
2019/07/16 07:34:47;;;;;;;21.03;13.33;;;;;;;19.92;52.98;100784.73;;;;-47
2019/07/16 07:37:46;;;;;;;16.91;13.83;;;;;;;19.89;52.50;100780.07;;;;-51
2019/07/16 07:40:46;;;;;;;18.99;14.62;;;;;;;19.91;52.73;100783.69;;;;-49
2019/07/16 07:43:46;;;;;;;17.57;13.36;;;;;;;19.96;52.80;100782.69;;;;-49
2019/07/16 07:46:46;;;;;;;16.37;12.98;;;;;;;20.02;52.60;100780.13;;;;-50
2019/07/16 07:49:46;;;;;;;15.37;12.57;;;;;;;20.06;52.50;100780.31;;;;-49
2019/07/16 07:52:46;;;;;;;16.87;12.65;;;;;;;20.10;52.29;100778.88;;;;-49
2019/07/16 07:55:46;;;;;;;13.89;11.83;;;;;;;20.13;52.40;100769.30;;;;-49
2019/07/16 07:58:46;;;;;;;15.63;11.93;;;;;;;20.14;52.24;100767.33;;;;-49
2019/07/16 08:01:46;;;;;;;13.29;11.22;;;;;;;20.17;52.03;100768.38;;;;-50
2019/07/16 08:04:46;;;;;;;14.51;10.23;;;;;;;20.22;51.91;100771.23;;;;-49
2019/07/16 08:07:46;;;;;;;15.86;10.93;;;;;;;20.23;51.67;100768.98;;;;-49
2019/07/16 08:10:46;;;;;;;14.73;9.90;;;;;;;20.25;51.77;100767.47;;;;-49
2019/07/16 08:13:46;;;;;;;14.66;10.30;;;;;;;20.30;51.79;100758.75;;;;-49
2019/07/16 08:16:46;;;;;;;12.01;9.32;;;;;;;20.36;51.75;100759.70;;;;-49
2019/07/16 08:19:46;;;;;;;11.13;9.00;;;;;;;20.41;51.68;100757.18;;;;-59
2019/07/16 08:22:46;;;;;;;11.53;8.45;;;;;;;20.45;51.66;100760.51;;;;-59
2019/07/16 08:25:46;;;;;;;10.79;8.71;;;;;;;20.48;51.59;100757.39;;;;-60
2019/07/16 08:28:46;;;;;;;10.33;8.49;;;;;;;20.51;51.57;100755.81;;;;-49
2019/07/16 08:31:46;;;;;;;9.95;7.73;;;;;;;20.53;51.53;100761.24;;;;-52
2019/07/16 08:34:46;;;;;;;9.61;7.93;;;;;;;20.56;51.51;100757.81;;;;-52
2019/07/16 08:37:46;;;;;;;8.74;7.87;;;;;;;20.58;51.50;100757.40;;;;-49
2019/07/16 08:40:46;;;;;;;9.15;7.61;;;;;;;20.59;51.47;100757.28;;;;-60
2019/07/16 08:43:46;;;;;;;8.54;7.49;;;;;;;20.62;51.48;100762.67;;;;-52
2019/07/16 08:46:46;;;;;;;8.58;7.38;;;;;;;20.62;51.48;100764.30;;;;-55
2019/07/16 08:49:46;;;;;;;8.48;7.68;;;;;;;20.64;51.44;100765.29;;;;-52
2019/07/16 08:52:46;;;;;;;8.59;7.55;;;;;;;20.65;51.46;100761.81;;;;-52
2019/07/16 08:55:47;;;;;;;13.27;7.39;;;;;;;20.67;51.58;100756.53;;;;-51
2019/07/16 08:58:46;;;;;;;8.97;7.19;;;;;;;20.71;51.73;100758.72;;;;-60
2019/07/16 09:01:47;;;;;;;8.77;7.06;;;;;;;20.74;51.80;100754.59;;;;-51
2019/07/16 09:04:46;;;;;;;9.17;6.90;;;;;;;20.77;51.81;100750.70;;;;-52
2019/07/16 09:07:47;;;;;;;8.85;6.76;;;;;;;20.80;51.89;100743.10;;;;-53
2019/07/16 09:10:47;;;;;;;8.59;6.74;;;;;;;20.82;51.98;100743.46;;;;-52
2019/07/16 09:13:46;;;;;;;7.93;6.58;;;;;;;20.84;52.04;100739.78;;;;-52
2019/07/16 09:16:46;;;;;;;7.67;6.71;;;;;;;20.87;52.01;100737.70;;;;-50
2019/07/16 09:19:46;;;;;;;9.36;6.74;;;;;;;20.90;51.96;100750.35;;;;-52
2019/07/16 09:22:46;;;;;;;18.29;7.08;;;;;;;20.93;52.06;100745.41;;;;-50
2019/07/16 09:25:46;;;;;;;9.93;6.62;;;;;;;20.94;52.15;100740.69;;;;-51
2019/07/16 09:28:46;;;;;;;10.25;6.48;;;;;;;20.96;52.08;100744.20;;;;-55
2019/07/16 09:31:46;;;;;;;9.49;6.46;;;;;;;20.97;52.38;100745.79;;;;-52
2019/07/16 09:34:46;;;;;;;9.97;6.33;;;;;;;20.98;52.42;100744.12;;;;-51
2019/07/16 09:37:46;;;;;;;8.78;6.92;;;;;;;21.00;52.36;100740.17;;;;-53
2019/07/16 09:40:46;;;;;;;16.81;6.58;;;;;;;21.01;52.32;100741.99;;;;-52
2019/07/16 09:43:46;;;;;;;9.39;6.55;;;;;;;21.01;52.52;100741.27;;;;-52
2019/07/16 09:46:46;;;;;;;12.83;6.81;;;;;;;21.05;52.39;100742.34;;;;-51
2019/07/16 09:49:46;;;;;;;20.24;6.50;;;;;;;21.05;52.62;100743.52;;;;-52
2019/07/16 09:52:46;;;;;;;11.85;6.39;;;;;;;21.08;52.54;100743.47;;;;-51
2019/07/16 09:55:46;;;;;;;12.62;6.91;;;;;;;21.11;52.66;100748.94;;;;-50
2019/07/16 09:58:46;;;;;;;15.95;6.84;;;;;;;21.12;52.65;100741.92;;;;-50
2019/07/16 10:01:46;;;;;;;14.44;6.53;;;;;;;21.14;52.52;100737.30;;;;-53
2019/07/16 10:04:46;;;;;;;12.63;6.43;;;;;;;21.15;52.57;100732.25;;;;-53
2019/07/16 10:07:46;;;;;;;11.59;6.32;;;;;;;21.14;52.47;100732.70;;;;-54
2019/07/16 10:10:46;;;;;;;11.86;6.09;;;;;;;21.15;52.55;100726.70;;;;-53
2019/07/16 10:13:46;;;;;;;14.79;6.09;;;;;;;21.14;52.41;100727.84;;;;-54
2019/07/16 10:16:46;;;;;;;13.95;6.58;;;;;;;21.15;52.37;100728.55;;;;-54
2019/07/16 10:19:46;;;;;;;10.56;6.61;;;;;;;21.14;52.30;100726.09;;;;-54
2019/07/16 10:22:47;;;;;;;10.53;6.24;;;;;;;21.15;52.23;100722.61;;;;-54
2019/07/16 10:25:46;;;;;;;21.73;6.78;;;;;;;21.15;52.34;100722.50;;;;-52
2019/07/16 10:28:46;;;;;;;11.85;6.26;;;;;;;21.15;52.38;100720.42;;;;-52
2019/07/16 10:31:46;;;;;;;11.49;6.25;;;;;;;21.17;52.32;100716.04;;;;-54
2019/07/16 10:34:46;;;;;;;8.75;6.07;;;;;;;21.16;52.38;100715.99;;;;-51
2019/07/16 10:37:46;;;;;;;9.24;6.21;;;;;;;21.20;52.34;100716.56;;;;-52
2019/07/16 10:40:46;;;;;;;13.61;6.43;;;;;;;21.21;52.26;100709.66;;;;-52
2019/07/16 10:43:46;;;;;;;12.54;6.49;;;;;;;21.24;52.33;100703.73;;;;-51
2019/07/16 10:46:46;;;;;;;15.65;6.36;;;;;;;21.21;52.36;100696.89;;;;-51
2019/07/16 10:49:46;;;;;;;10.57;6.11;;;;;;;21.21;52.23;100701.25;;;;-51
2019/07/16 10:52:46;;;;;;;10.15;6.01;;;;;;;21.22;52.22;100698.84;;;;-51
2019/07/16 10:55:46;;;;;;;10.77;6.15;;;;;;;21.22;52.14;100696.48;;;;-53
2019/07/16 10:58:46;;;;;;;9.56;5.89;;;;;;;21.21;52.07;100693.86;;;;-51
2019/07/16 11:01:46;;;;;;;11.49;6.15;;;;;;;21.22;52.04;100687.59;;;;-51
2019/07/16 11:04:46;;;;;;;9.84;6.08;;;;;;;21.21;52.09;100686.03;;;;-51
2019/07/16 11:07:46;;;;;;;10.31;6.15;;;;;;;21.21;52.08;100684.96;;;;-51
2019/07/16 11:10:46;;;;;;;7.71;5.72;;;;;;;21.22;52.04;100683.72;;;;-51
2019/07/16 11:13:46;;;;;;;8.64;5.95;;;;;;;21.22;51.96;100682.04;;;;-51
2019/07/16 11:16:46;;;;;;;14.51;5.89;;;;;;;21.21;51.98;100674.55;;;;-51
2019/07/16 11:19:46;;;;;;;8.12;6.09;;;;;;;21.21;51.90;100676.22;;;;-51
2019/07/16 11:22:46;;;;;;;8.05;5.53;;;;;;;21.20;51.94;100673.56;;;;-50
2019/07/16 11:25:46;;;;;;;8.15;5.85;;;;;;;21.20;51.93;100670.70;;;;-51
2019/07/16 11:28:46;;;;;;;9.77;5.94;;;;;;;21.21;51.90;100664.03;;;;-51
2019/07/16 11:31:47;;;;;;;10.25;5.59;;;;;;;21.21;51.89;100664.03;;;;-47
2019/07/16 11:34:47;;;;;;;7.76;5.81;;;;;;;21.21;51.88;100664.30;;;;-46
2019/07/16 11:37:47;;;;;;;9.70;5.72;;;;;;;21.20;51.87;100661.06;;;;-47
2019/07/16 11:40:47;;;;;;;7.46;5.69;;;;;;;21.20;51.85;100659.05;;;;-47
2019/07/16 11:43:46;;;;;;;8.41;5.45;;;;;;;21.20;51.93;100656.26;;;;-46
2019/07/16 11:46:47;;;;;;;8.37;5.29;;;;;;;21.22;51.87;100653.83;;;;-47
2019/07/16 11:49:46;;;;;;;7.65;5.71;;;;;;;21.23;51.95;100650.27;;;;-48
2019/07/16 11:52:46;;;;;;;8.27;5.57;;;;;;;21.22;52.01;100646.38;;;;-49
2019/07/16 11:55:46;;;;;;;10.16;5.34;;;;;;;21.23;52.10;100646.58;;;;-48
2019/07/16 11:58:46;;;;;;;8.17;5.54;;;;;;;21.24;51.99;100645.94;;;;-48
2019/07/16 12:01:46;;;;;;;6.27;5.26;;;;;;;21.24;51.94;100647.13;;;;-49
2019/07/16 12:04:46;;;;;;;9.20;5.40;;;;;;;21.23;51.93;100640.03;;;;-48
2019/07/16 12:07:46;;;;;;;7.13;5.09;;;;;;;21.24;51.92;100639.06;;;;-48
2019/07/16 12:10:46;;;;;;;6.56;5.23;;;;;;;21.24;51.88;100635.20;;;;-49
2019/07/16 12:13:46;;;;;;;7.53;5.32;;;;;;;21.24;51.88;100627.63;;;;-48
2019/07/16 12:16:46;;;;;;;7.08;5.24;;;;;;;21.24;51.86;100621.32;;;;-48
2019/07/16 12:19:46;;;;;;;6.57;5.12;;;;;;;21.24;51.82;100624.11;;;;-49
2019/07/16 12:22:46;;;;;;;6.80;5.06;;;;;;;21.25;51.83;100617.16;;;;-48
2019/07/16 12:25:46;;;;;;;6.76;4.86;;;;;;;21.24;51.80;100620.92;;;;-48
2019/07/16 12:28:46;;;;;;;6.97;5.49;;;;;;;21.24;51.80;100619.64;;;;-48
2019/07/16 12:31:46;;;;;;;6.47;4.73;;;;;;;21.24;51.82;100612.08;;;;-49
2019/07/16 12:34:46;;;;;;;5.73;4.98;;;;;;;21.24;51.80;100610.33;;;;-48
2019/07/16 12:37:46;;;;;;;6.83;5.18;;;;;;;21.24;51.77;100603.45;;;;-49
2019/07/16 12:40:46;;;;;;;7.37;4.97;;;;;;;21.24;51.83;100606.37;;;;-47
2019/07/16 12:43:46;;;;;;;6.17;5.03;;;;;;;21.25;51.82;100605.67;;;;-48
2019/07/16 12:46:47;;;;;;;7.11;5.17;;;;;;;21.27;51.81;100603.87;;;;-47
2019/07/16 12:49:46;;;;;;;6.65;4.82;;;;;;;21.29;51.86;100601.70;;;;-47
2019/07/16 12:52:46;;;;;;;8.77;5.20;;;;;;;21.31;51.87;100602.01;;;;-47
2019/07/16 12:55:46;;;;;;;8.83;4.96;;;;;;;21.33;51.94;100594.36;;;;-47
2019/07/16 12:58:46;;;;;;;6.39;4.84;;;;;;;21.33;52.01;100587.00;;;;-45
2019/07/16 13:01:47;;;;;;;6.71;4.74;;;;;;;21.36;52.00;100597.73;;;;-46
2019/07/16 13:04:46;;;;;;;7.59;4.57;;;;;;;21.36;51.95;100597.33;;;;-48
2019/07/16 13:07:46;;;;;;;7.54;4.69;;;;;;;21.34;52.07;100596.92;;;;-48
2019/07/16 13:10:46;;;;;;;5.48;4.76;;;;;;;21.33;52.05;100592.38;;;;-48
2019/07/16 13:13:46;;;;;;;7.27;4.77;;;;;;;21.33;52.01;100594.19;;;;-49
2019/07/16 13:16:46;;;;;;;5.53;4.59;;;;;;;21.32;51.98;100590.29;;;;-48
2019/07/16 13:19:46;;;;;;;5.69;4.69;;;;;;;21.33;52.01;100593.19;;;;-47
2019/07/16 13:22:46;;;;;;;5.73;4.77;;;;;;;21.32;51.95;100585.12;;;;-48
2019/07/16 13:25:46;;;;;;;7.50;4.73;;;;;;;21.33;51.97;100592.17;;;;-48
2019/07/16 13:28:46;;;;;;;5.69;4.64;;;;;;;21.32;51.92;100585.85;;;;-48
2019/07/16 13:31:46;;;;;;;6.29;4.85;;;;;;;21.32;51.87;100585.25;;;;-48
2019/07/16 13:34:46;;;;;;;6.05;4.60;;;;;;;21.33;51.80;100582.60;;;;-48
2019/07/16 13:37:46;;;;;;;4.73;4.31;;;;;;;21.32;51.87;100581.82;;;;-48
2019/07/16 13:40:46;;;;;;;8.69;4.53;;;;;;;21.32;51.86;100580.21;;;;-49
2019/07/16 13:43:46;;;;;;;6.53;4.42;;;;;;;21.32;51.85;100586.42;;;;-48
2019/07/16 13:46:46;;;;;;;6.12;4.71;;;;;;;21.32;51.82;100574.83;;;;-48
2019/07/16 13:49:46;;;;;;;5.29;4.47;;;;;;;21.30;51.85;100577.21;;;;-50
2019/07/16 13:52:47;;;;;;;7.10;4.53;;;;;;;21.34;52.06;100575.84;;;;-47
2019/07/16 13:55:47;;;;;;;5.74;4.65;;;;;;;21.35;52.13;100573.70;;;;-48
2019/07/16 13:58:46;;;;;;;4.99;4.52;;;;;;;21.38;52.23;100573.79;;;;-51
2019/07/16 14:01:46;;;;;;;5.38;4.45;;;;;;;21.39;52.36;100572.02;;;;-52
2019/07/16 14:04:46;;;;;;;7.15;4.56;;;;;;;21.41;52.40;100569.70;;;;-51
2019/07/16 14:07:46;;;;;;;7.15;4.56;;;;;;;21.42;52.48;100569.20;;;;-51
2019/07/16 14:14:02;;;;;;;4.87;4.25;;;;;;;21.46;52.50;100561.19;;;;-51
2019/07/16 14:17:02;;;;;;;5.14;4.27;;;;;;;21.44;52.39;100560.84;;;;-52
2019/07/16 14:20:02;;;;;;;6.89;4.33;;;;;;;21.44;52.57;100559.00;;;;-52
2019/07/16 14:23:02;;;;;;;5.76;4.37;;;;;;;21.44;52.43;100557.59;;;;-52
2019/07/16 14:26:02;;;;;;;6.31;4.35;;;;;;;21.44;52.44;100556.58;;;;-52
2019/07/16 14:29:02;;;;;;;6.27;4.29;;;;;;;21.44;52.37;100556.81;;;;-52
2019/07/16 14:32:02;;;;;;;5.81;4.45;;;;;;;21.43;52.23;100557.28;;;;-52
2019/07/16 14:35:02;;;;;;;5.21;4.45;;;;;;;21.43;52.16;100552.91;;;;-52
2019/07/16 14:38:02;;;;;;;7.23;4.53;;;;;;;21.42;52.21;100549.34;;;;-51
2019/07/16 14:41:02;;;;;;;6.23;4.21;;;;;;;21.45;52.23;100545.77;;;;-51
2019/07/16 14:44:02;;;;;;;5.13;4.31;;;;;;;21.47;52.20;100547.28;;;;-51
2019/07/16 14:47:02;;;;;;;5.65;4.14;;;;;;;21.48;52.17;100539.09;;;;-52
2019/07/16 14:50:02;;;;;;;5.16;4.33;;;;;;;21.49;52.33;100542.66;;;;-53
2019/07/16 14:53:02;;;;;;;5.55;3.99;;;;;;;21.48;52.27;100538.58;;;;-54
2019/07/16 14:56:02;;;;;;;4.61;4.17;;;;;;;21.48;52.31;100533.44;;;;-54
2019/07/16 14:59:02;;;;;;;5.32;4.56;;;;;;;21.48;52.17;100535.05;;;;-54
2019/07/16 15:02:02;;;;;;;6.57;4.19;;;;;;;21.47;52.17;100530.89;;;;-54
2019/07/16 15:05:02;;;;;;;6.17;3.99;;;;;;;21.47;52.14;100518.11;;;;-54
2019/07/16 15:08:02;;;;;;;6.99;4.06;;;;;;;21.47;52.16;100517.34;;;;-53
2019/07/16 15:11:02;;;;;;;6.12;4.33;;;;;;;21.46;52.14;100516.91;;;;-54
2019/07/16 15:14:02;;;;;;;6.13;4.10;;;;;;;21.47;52.08;100522.38;;;;-53
2019/07/16 15:17:02;;;;;;;7.20;3.93;;;;;;;21.46;52.08;100511.08;;;;-54
2019/07/16 15:20:02;;;;;;;6.50;4.25;;;;;;;21.46;52.06;100503.69;;;;-54
2019/07/16 15:23:02;;;;;;;4.84;4.11;;;;;;;21.46;52.02;100501.84;;;;-54
2019/07/16 15:26:02;;;;;;;5.04;4.15;;;;;;;21.46;51.99;100491.86;;;;-54
2019/07/16 15:29:02;;;;;;;5.26;4.18;;;;;;;21.45;51.99;100493.84;;;;-54
2019/07/16 15:32:02;;;;;;;6.75;4.15;;;;;;;21.46;51.94;100493.10;;;;-54
2019/07/16 15:35:02;;;;;;;4.71;4.27;;;;;;;21.45;51.89;100484.70;;;;-54
2019/07/16 15:38:02;;;;;;;5.13;4.25;;;;;;;21.46;51.88;100484.03;;;;-52
2019/07/16 15:41:02;;;;;;;4.05;3.71;;;;;;;21.46;51.88;100485.55;;;;-54
2019/07/16 15:44:02;;;;;;;5.85;4.45;;;;;;;21.45;51.92;100491.66;;;;-54
2019/07/16 15:47:02;;;;;;;4.81;3.76;;;;;;;21.45;51.91;100485.67;;;;-53
2019/07/16 15:50:02;;;;;;;4.78;3.83;;;;;;;21.45;51.89;100480.91;;;;-54
2019/07/16 15:53:02;;;;;;;5.08;4.09;;;;;;;21.45;51.86;100480.50;;;;-54
2019/07/16 15:56:02;;;;;;;4.48;4.07;;;;;;;21.44;51.91;100480.03;;;;-53
2019/07/16 15:59:06;;;;;;;4.53;3.89;;;;;;;21.45;51.84;100478.98;;;;-53
2019/07/16 16:02:02;;;;;;;3.95;3.57;;;;;;;21.45;51.81;100480.57;;;;-53
2019/07/16 16:05:02;;;;;;;4.37;3.75;;;;;;;21.45;51.83;100478.95;;;;-54
2019/07/16 16:08:02;;;;;;;4.88;4.10;;;;;;;21.44;51.83;100475.77;;;;-53
2019/07/16 16:11:02;;;;;;;4.30;3.90;;;;;;;21.43;51.83;100471.59;;;;-54
2019/07/16 16:14:02;;;;;;;4.19;3.79;;;;;;;21.43;51.79;100471.42;;;;-54
2019/07/16 16:17:02;;;;;;;4.09;3.69;;;;;;;21.43;51.84;100470.65;;;;-53
2019/07/16 16:20:02;;;;;;;5.21;3.76;;;;;;;21.44;51.81;100462.83;;;;-54
2019/07/16 16:23:02;;;;;;;4.22;3.67;;;;;;;21.42;51.84;100467.79;;;;-53
2019/07/16 16:26:02;;;;;;;3.90;3.51;;;;;;;21.44;51.81;100470.86;;;;-54
2019/07/16 16:29:02;;;;;;;4.07;3.67;;;;;;;21.43;51.84;100465.48;;;;-50
2019/07/16 16:32:02;;;;;;;4.77;3.61;;;;;;;21.46;51.88;100462.80;;;;-52
2019/07/16 16:35:02;;;;;;;6.55;3.93;;;;;;;21.48;52.01;100466.12;;;;-52
2019/07/16 16:38:02;;;;;;;5.05;3.79;;;;;;;21.49;52.06;100464.02;;;;-53
2019/07/16 16:41:02;;;;;;;5.84;3.71;;;;;;;21.52;52.04;100465.09;;;;-52